sensor_id;sensor_type;location;lat;lon;timestamp;P1;durP1;ratioP1;P2;durP2;ratioP2
21488;SDS011;10906;45.194;5.684;2022-12-18T06:03:05;13.77;;;8.95;;
21488;SDS011;10906;45.194;5.684;2022-12-18T06:05:58;16.88;;;9.65;;
21488;SDS011;10906;45.194;5.684;2022-12-18T06:08:45;16.88;;;8.90;;
21488;SDS011;10906;45.194;5.684;2022-12-18T06:11:33;13.18;;;8.07;;
21488;SDS011;10906;45.194;5.684;2022-12-18T06:14:18;13.57;;;8.85;;
21488;SDS011;10906;45.194;5.684;2022-12-18T06:17:12;14.55;;;9.20;;
21488;SDS011;10906;45.194;5.684;2022-12-18T06:20:04;16.63;;;9.63;;
21488;SDS011;10906;45.194;5.684;2022-12-18T06:22:50;19.10;;;10.55;;
21488;SDS011;10906;45.194;5.684;2022-12-18T06:25:40;14.95;;;9.57;;
21488;SDS011;10906;45.194;5.684;2022-12-18T06:28:34;17.95;;;10.45;;
21488;SDS011;10906;45.194;5.684;2022-12-18T06:31:21;15.38;;;9.98;;
21488;SDS011;10906;45.194;5.684;2022-12-18T06:34:08;14.90;;;8.98;;
21488;SDS011;10906;45.194;5.684;2022-12-18T06:36:52;14.25;;;9.00;;
21488;SDS011;10906;45.194;5.684;2022-12-18T06:39:47;18.30;;;10.60;;
21488;SDS011;10906;45.194;5.684;2022-12-18T06:42:34;14.40;;;9.50;;
21488;SDS011;10906;45.194;5.684;2022-12-18T06:45:18;16.13;;;10.48;;
21488;SDS011;10906;45.194;5.684;2022-12-18T06:48:10;20.33;;;12.43;;
21488;SDS011;10906;45.194;5.684;2022-12-18T06:50:57;20.20;;;12.82;;
21488;SDS011;10906;45.194;5.684;2022-12-18T06:53:47;17.88;;;11.23;;
21488;SDS011;10906;45.194;5.684;2022-12-18T06:56:36;18.58;;;11.57;;
21488;SDS011;10906;45.194;5.684;2022-12-18T06:59:30;18.63;;;12.20;;
21488;SDS011;10906;45.194;5.684;2022-12-18T07:02:17;16.85;;;11.38;;
21488;SDS011;10906;45.194;5.684;2022-12-18T07:05:01;19.33;;;12.90;;
21488;SDS011;10906;45.194;5.684;2022-12-18T07:07:46;18.05;;;10.65;;
21488;SDS011;10906;45.194;5.684;2022-12-18T07:10:30;16.75;;;11.25;;
21488;SDS011;10906;45.194;5.684;2022-12-18T07:13:15;20.17;;;11.93;;
21488;SDS011;10906;45.194;5.684;2022-12-18T07:16:19;20.42;;;12.75;;
21488;SDS011;10906;45.194;5.684;2022-12-18T07:19:24;19.27;;;12.18;;
21488;SDS011;10906;45.194;5.684;2022-12-18T07:22:11;20.27;;;12.05;;
21488;SDS011;10906;45.194;5.684;2022-12-18T07:24:58;16.30;;;10.93;;
21488;SDS011;10906;45.194;5.684;2022-12-18T07:27:47;14.65;;;10.00;;
21488;SDS011;10906;45.194;5.684;2022-12-18T07:30:36;15.93;;;10.43;;
21488;SDS011;10906;45.194;5.684;2022-12-18T07:33:22;16.88;;;10.68;;
21488;SDS011;10906;45.194;5.684;2022-12-18T07:36:14;12.90;;;9.48;;
21488;SDS011;10906;45.194;5.684;2022-12-18T07:39:08;18.45;;;11.43;;
21488;SDS011;10906;45.194;5.684;2022-12-18T07:41:54;39.00;;;22.50;;
21488;SDS011;10906;45.194;5.684;2022-12-18T07:45:07;34.85;;;28.27;;
21488;SDS011;10906;45.194;5.684;2022-12-18T07:47:53;20.33;;;18.05;;
21488;SDS011;10906;45.194;5.684;2022-12-18T07:50:57;16.00;;;12.80;;
21488;SDS011;10906;45.194;5.684;2022-12-18T07:53:55;15.63;;;13.07;;
21488;SDS011;10906;45.194;5.684;2022-12-18T07:56:40;15.52;;;9.57;;
21488;SDS011;10906;45.194;5.684;2022-12-18T07:59:27;12.20;;;8.73;;
21488;SDS011;10906;45.194;5.684;2022-12-18T08:02:22;12.63;;;9.30;;
21488;SDS011;10906;45.194;5.684;2022-12-18T08:05:07;15.60;;;10.48;;
21488;SDS011;10906;45.194;5.684;2022-12-18T08:07:52;15.57;;;10.52;;
21488;SDS011;10906;45.194;5.684;2022-12-18T08:10:47;16.73;;;10.60;;
21488;SDS011;10906;45.194;5.684;2022-12-18T08:13:34;32.50;;;23.15;;
21488;SDS011;10906;45.194;5.684;2022-12-18T08:16:27;21.02;;;16.85;;
21488;SDS011;10906;45.194;5.684;2022-12-18T08:19:11;23.05;;;16.45;;
21488;SDS011;10906;45.194;5.684;2022-12-18T08:22:05;14.73;;;11.02;;
21488;SDS011;10906;45.194;5.684;2022-12-18T08:24:50;15.57;;;9.93;;
21488;SDS011;10906;45.194;5.684;2022-12-18T08:27:44;14.20;;;9.20;;
21488;SDS011;10906;45.194;5.684;2022-12-18T08:30:31;14.27;;;9.30;;
21488;SDS011;10906;45.194;5.684;2022-12-18T08:33:19;12.93;;;8.40;;
21488;SDS011;10906;45.194;5.684;2022-12-18T08:36:07;13.52;;;8.60;;
21488;SDS011;10906;45.194;5.684;2022-12-18T08:38:58;13.27;;;9.73;;
21488;SDS011;10906;45.194;5.684;2022-12-18T08:41:43;13.13;;;9.00;;
21488;SDS011;10906;45.194;5.684;2022-12-18T08:44:49;15.10;;;8.95;;
21488;SDS011;10906;45.194;5.684;2022-12-18T08:47:39;15.65;;;9.13;;
21488;SDS011;10906;45.194;5.684;2022-12-18T08:50:24;14.73;;;10.18;;
21488;SDS011;10906;45.194;5.684;2022-12-18T08:53:09;13.23;;;9.52;;
21488;SDS011;10906;45.194;5.684;2022-12-18T08:55:58;16.70;;;10.98;;
21488;SDS011;10906;45.194;5.684;2022-12-18T08:58:56;16.15;;;11.05;;
21488;SDS011;10906;45.194;5.684;2022-12-18T09:01:41;20.65;;;11.55;;
21488;SDS011;10906;45.194;5.684;2022-12-18T09:04:28;18.38;;;13.18;;
21488;SDS011;10906;45.194;5.684;2022-12-18T09:07:26;20.98;;;12.85;;
21488;SDS011;10906;45.194;5.684;2022-12-18T09:10:15;18.98;;;12.70;;
21488;SDS011;10906;45.194;5.684;2022-12-18T09:16:21;19.70;;;13.25;;
21488;SDS011;10906;45.194;5.684;2022-12-18T09:19:11;20.98;;;13.52;;
21488;SDS011;10906;45.194;5.684;2022-12-18T09:22:01;19.08;;;12.50;;
21488;SDS011;10906;45.194;5.684;2022-12-18T09:25:35;18.73;;;12.13;;
21488;SDS011;10906;45.194;5.684;2022-12-18T09:28:20;20.58;;;12.95;;
21488;SDS011;10906;45.194;5.684;2022-12-18T09:31:05;18.60;;;13.30;;
21488;SDS011;10906;45.194;5.684;2022-12-18T09:33:51;18.52;;;12.10;;
21488;SDS011;10906;45.194;5.684;2022-12-18T09:36:38;17.25;;;11.65;;
21488;SDS011;10906;45.194;5.684;2022-12-18T09:39:22;22.38;;;13.60;;
21488;SDS011;10906;45.194;5.684;2022-12-18T09:42:09;16.60;;;11.85;;
21488;SDS011;10906;45.194;5.684;2022-12-18T09:45:07;15.55;;;10.23;;
21488;SDS011;10906;45.194;5.684;2022-12-18T09:47:56;16.48;;;10.90;;
21488;SDS011;10906;45.194;5.684;2022-12-18T09:50:41;15.70;;;10.95;;
21488;SDS011;10906;45.194;5.684;2022-12-18T09:53:28;16.60;;;11.45;;
21488;SDS011;10906;45.194;5.684;2022-12-18T09:56:17;15.60;;;10.77;;
21488;SDS011;10906;45.194;5.684;2022-12-18T09:59:08;16.75;;;10.70;;
21488;SDS011;10906;45.194;5.684;2022-12-18T10:02:11;15.00;;;10.65;;
21488;SDS011;10906;45.194;5.684;2022-12-18T10:05:12;13.40;;;9.70;;
21488;SDS011;10906;45.194;5.684;2022-12-18T10:11:02;16.15;;;11.25;;
21488;SDS011;10906;45.194;5.684;2022-12-18T10:23:11;14.88;;;10.18;;
21488;SDS011;10906;45.194;5.684;2022-12-18T10:26:18;15.25;;;10.38;;
21488;SDS011;10906;45.194;5.684;2022-12-18T10:29:24;12.63;;;9.93;;
21488;SDS011;10906;45.194;5.684;2022-12-18T10:32:16;13.90;;;10.38;;
21488;SDS011;10906;45.194;5.684;2022-12-18T10:35:03;17.85;;;11.73;;
21488;SDS011;10906;45.194;5.684;2022-12-18T10:38:01;15.98;;;11.05;;
21488;SDS011;10906;45.194;5.684;2022-12-18T10:44:15;14.23;;;10.55;;
21488;SDS011;10906;45.194;5.684;2022-12-18T10:47:05;15.95;;;10.85;;
21488;SDS011;10906;45.194;5.684;2022-12-18T10:49:55;16.02;;;11.20;;
21488;SDS011;10906;45.194;5.684;2022-12-18T10:55:27;14.43;;;10.00;;
21488;SDS011;10906;45.194;5.684;2022-12-18T11:01:11;12.00;;;9.57;;
21488;SDS011;10906;45.194;5.684;2022-12-18T11:03:59;15.18;;;10.93;;
21488;SDS011;10906;45.194;5.684;2022-12-18T11:07:07;18.17;;;10.30;;
21488;SDS011;10906;45.194;5.684;2022-12-18T11:09:59;14.68;;;10.45;;
21488;SDS011;10906;45.194;5.684;2022-12-18T11:12:47;16.35;;;11.50;;
21488;SDS011;10906;45.194;5.684;2022-12-18T11:15:36;14.20;;;10.75;;
21488;SDS011;10906;45.194;5.684;2022-12-18T11:18:28;14.68;;;11.13;;
21488;SDS011;10906;45.194;5.684;2022-12-18T11:21:18;13.43;;;9.75;;
21488;SDS011;10906;45.194;5.684;2022-12-18T11:24:03;18.00;;;13.70;;
21488;SDS011;10906;45.194;5.684;2022-12-18T11:27:05;17.13;;;11.05;;
21488;SDS011;10906;45.194;5.684;2022-12-18T11:36:05;13.70;;;9.57;;
21488;SDS011;10906;45.194;5.684;2022-12-18T11:38:53;14.60;;;10.70;;
21488;SDS011;10906;45.194;5.684;2022-12-18T11:41:47;12.90;;;9.43;;
21488;SDS011;10906;45.194;5.684;2022-12-18T11:51:08;13.93;;;10.77;;
21488;SDS011;10906;45.194;5.684;2022-12-18T11:53:58;12.73;;;9.55;;
21488;SDS011;10906;45.194;5.684;2022-12-18T11:56:48;12.95;;;10.50;;
21488;SDS011;10906;45.194;5.684;2022-12-18T12:06:37;15.23;;;10.57;;
21488;SDS011;10906;45.194;5.684;2022-12-18T12:13:42;12.82;;;10.25;;
21488;SDS011;10906;45.194;5.684;2022-12-18T12:16:52;20.60;;;16.15;;
21488;SDS011;10906;45.194;5.684;2022-12-18T12:23:11;13.15;;;10.43;;
21488;SDS011;10906;45.194;5.684;2022-12-18T12:26:16;11.75;;;7.72;;
21488;SDS011;10906;45.194;5.684;2022-12-18T12:32:58;9.27;;;7.45;;
21488;SDS011;10906;45.194;5.684;2022-12-18T12:36:09;11.85;;;9.05;;
21488;SDS011;10906;45.194;5.684;2022-12-18T12:39:18;10.57;;;7.63;;
21488;SDS011;10906;45.194;5.684;2022-12-18T12:42:16;10.98;;;7.78;;
21488;SDS011;10906;45.194;5.684;2022-12-18T12:48:49;12.43;;;8.10;;
21488;SDS011;10906;45.194;5.684;2022-12-18T12:51:40;11.05;;;7.55;;
21488;SDS011;10906;45.194;5.684;2022-12-18T12:54:48;13.32;;;9.50;;
21488;SDS011;10906;45.194;5.684;2022-12-18T13:05:25;12.05;;;8.55;;
21488;SDS011;10906;45.194;5.684;2022-12-18T13:08:53;13.38;;;9.48;;
21488;SDS011;10906;45.194;5.684;2022-12-18T13:15:20;15.15;;;12.43;;
21488;SDS011;10906;45.194;5.684;2022-12-18T13:18:40;13.60;;;9.80;;
21488;SDS011;10906;45.194;5.684;2022-12-18T13:42:47;7.28;;;6.00;;
21488;SDS011;10906;45.194;5.684;2022-12-18T13:49:41;6.93;;;5.80;;
21488;SDS011;10906;45.194;5.684;2022-12-18T13:52:42;7.22;;;5.85;;
21488;SDS011;10906;45.194;5.684;2022-12-18T13:55:32;8.32;;;5.90;;
21488;SDS011;10906;45.194;5.684;2022-12-18T13:58:20;8.73;;;6.20;;
21488;SDS011;10906;45.194;5.684;2022-12-18T14:01:10;9.60;;;6.43;;
21488;SDS011;10906;45.194;5.684;2022-12-18T14:07:20;9.95;;;7.55;;
21488;SDS011;10906;45.194;5.684;2022-12-18T14:10:23;11.35;;;7.53;;
21488;SDS011;10906;45.194;5.684;2022-12-18T14:13:08;8.35;;;6.72;;
21488;SDS011;10906;45.194;5.684;2022-12-18T14:15:57;14.07;;;8.50;;
21488;SDS011;10906;45.194;5.684;2022-12-18T14:18:54;12.02;;;7.93;;
21488;SDS011;10906;45.194;5.684;2022-12-18T14:21:47;10.43;;;8.25;;
21488;SDS011;10906;45.194;5.684;2022-12-18T14:29:28;10.25;;;6.85;;
21488;SDS011;10906;45.194;5.684;2022-12-18T14:36:51;11.32;;;6.47;;
21488;SDS011;10906;45.194;5.684;2022-12-18T14:39:40;9.10;;;6.93;;
21488;SDS011;10906;45.194;5.684;2022-12-18T14:43:05;10.38;;;6.38;;
21488;SDS011;10906;45.194;5.684;2022-12-18T14:45:52;10.55;;;7.60;;
21488;SDS011;10906;45.194;5.684;2022-12-18T14:48:40;15.85;;;12.05;;
21488;SDS011;10906;45.194;5.684;2022-12-18T14:51:26;12.82;;;7.80;;
21488;SDS011;10906;45.194;5.684;2022-12-18T14:54:16;11.80;;;7.32;;
21488;SDS011;10906;45.194;5.684;2022-12-18T14:57:05;11.38;;;8.18;;
21488;SDS011;10906;45.194;5.684;2022-12-18T15:00:14;16.55;;;11.35;;
21488;SDS011;10906;45.194;5.684;2022-12-18T15:03:01;12.82;;;8.73;;
21488;SDS011;10906;45.194;5.684;2022-12-18T15:05:51;14.30;;;8.75;;
21488;SDS011;10906;45.194;5.684;2022-12-18T15:08:36;13.40;;;8.43;;
21488;SDS011;10906;45.194;5.684;2022-12-18T15:14:58;11.27;;;8.20;;
21488;SDS011;10906;45.194;5.684;2022-12-18T15:17:55;10.13;;;7.60;;
21488;SDS011;10906;45.194;5.684;2022-12-18T15:21:07;10.52;;;7.18;;
21488;SDS011;10906;45.194;5.684;2022-12-18T15:27:26;14.18;;;9.57;;
21488;SDS011;10906;45.194;5.684;2022-12-18T15:30:30;14.88;;;9.50;;
21488;SDS011;10906;45.194;5.684;2022-12-18T15:33:25;14.23;;;9.77;;
21488;SDS011;10906;45.194;5.684;2022-12-18T15:36:15;11.60;;;9.13;;
21488;SDS011;10906;45.194;5.684;2022-12-18T15:39:20;12.55;;;8.70;;
21488;SDS011;10906;45.194;5.684;2022-12-18T15:42:10;19.27;;;10.25;;
21488;SDS011;10906;45.194;5.684;2022-12-18T15:45:16;15.60;;;9.45;;
21488;SDS011;10906;45.194;5.684;2022-12-18T15:48:20;14.60;;;10.05;;
21488;SDS011;10906;45.194;5.684;2022-12-18T15:55:13;14.95;;;9.73;;
21488;SDS011;10906;45.194;5.684;2022-12-18T15:58:17;15.48;;;11.43;;
21488;SDS011;10906;45.194;5.684;2022-12-18T16:01:12;14.23;;;10.20;;
21488;SDS011;10906;45.194;5.684;2022-12-18T16:03:57;17.03;;;11.97;;
21488;SDS011;10906;45.194;5.684;2022-12-18T16:06:42;14.88;;;10.23;;
21488;SDS011;10906;45.194;5.684;2022-12-18T16:09:30;15.93;;;11.55;;
21488;SDS011;10906;45.194;5.684;2022-12-18T16:15:10;16.15;;;10.60;;
21488;SDS011;10906;45.194;5.684;2022-12-18T16:18:07;17.25;;;11.38;;
21488;SDS011;10906;45.194;5.684;2022-12-18T16:21:01;13.93;;;10.35;;
21488;SDS011;10906;45.194;5.684;2022-12-18T16:23:45;15.82;;;10.35;;
21488;SDS011;10906;45.194;5.684;2022-12-18T16:29:27;15.85;;;11.07;;
21488;SDS011;10906;45.194;5.684;2022-12-18T16:32:12;15.18;;;9.80;;
21488;SDS011;10906;45.194;5.684;2022-12-18T16:35:37;16.92;;;9.38;;
21488;SDS011;10906;45.194;5.684;2022-12-18T16:38:15;14.65;;;9.77;;
21488;SDS011;10906;45.194;5.684;2022-12-18T16:41:03;14.35;;;9.52;;
21488;SDS011;10906;45.194;5.684;2022-12-18T16:44:15;14.40;;;10.20;;
21488;SDS011;10906;45.194;5.684;2022-12-18T16:47:00;16.60;;;10.07;;
21488;SDS011;10906;45.194;5.684;2022-12-18T16:49:48;14.77;;;11.02;;
21488;SDS011;10906;45.194;5.684;2022-12-18T16:52:38;19.17;;;10.77;;
21488;SDS011;10906;45.194;5.684;2022-12-18T16:56:09;16.17;;;11.38;;
21488;SDS011;10906;45.194;5.684;2022-12-18T16:59:01;13.60;;;10.38;;
21488;SDS011;10906;45.194;5.684;2022-12-18T17:01:47;15.57;;;11.35;;
21488;SDS011;10906;45.194;5.684;2022-12-18T17:04:39;20.63;;;11.68;;
21488;SDS011;10906;45.194;5.684;2022-12-18T17:07:23;16.90;;;10.63;;
21488;SDS011;10906;45.194;5.684;2022-12-18T17:10:18;18.70;;;11.43;;
21488;SDS011;10906;45.194;5.684;2022-12-18T17:13:06;17.17;;;11.05;;
21488;SDS011;10906;45.194;5.684;2022-12-18T17:15:53;16.08;;;10.80;;
21488;SDS011;10906;45.194;5.684;2022-12-18T17:23:17;13.20;;;9.43;;
21488;SDS011;10906;45.194;5.684;2022-12-18T17:26:09;15.05;;;9.63;;
21488;SDS011;10906;45.194;5.684;2022-12-18T17:28:55;19.27;;;14.15;;
21488;SDS011;10906;45.194;5.684;2022-12-18T17:31:43;13.80;;;9.35;;
21488;SDS011;10906;45.194;5.684;2022-12-18T17:34:27;16.80;;;11.10;;
21488;SDS011;10906;45.194;5.684;2022-12-18T17:37:23;20.55;;;15.07;;
21488;SDS011;10906;45.194;5.684;2022-12-18T17:40:08;18.27;;;11.55;;
21488;SDS011;10906;45.194;5.684;2022-12-18T17:43:17;15.32;;;10.07;;
21488;SDS011;10906;45.194;5.684;2022-12-18T17:46:05;16.13;;;9.95;;
21488;SDS011;10906;45.194;5.684;2022-12-18T17:48:50;34.45;;;23.40;;
21488;SDS011;10906;45.194;5.684;2022-12-18T17:51:35;17.95;;;12.30;;
21488;SDS011;10906;45.194;5.684;2022-12-18T17:54:30;16.48;;;10.80;;
21488;SDS011;10906;45.194;5.684;2022-12-18T17:57:19;16.00;;;10.45;;
21488;SDS011;10906;45.194;5.684;2022-12-18T18:00:03;16.30;;;9.68;;
21488;SDS011;10906;45.194;5.684;2022-12-18T18:02:48;15.80;;;10.10;;
21488;SDS011;10906;45.194;5.684;2022-12-18T18:05:42;16.10;;;10.63;;
21488;SDS011;10906;45.194;5.684;2022-12-18T18:08:27;15.25;;;9.93;;
21488;SDS011;10906;45.194;5.684;2022-12-18T18:11:15;20.88;;;13.77;;
21488;SDS011;10906;45.194;5.684;2022-12-18T18:14:19;17.15;;;10.27;;
21488;SDS011;10906;45.194;5.684;2022-12-18T18:17:04;16.35;;;10.63;;
21488;SDS011;10906;45.194;5.684;2022-12-18T18:19:49;14.25;;;9.20;;
21488;SDS011;10906;45.194;5.684;2022-12-18T18:22:33;16.75;;;10.77;;
21488;SDS011;10906;45.194;5.684;2022-12-18T18:25:17;17.00;;;10.90;;
21488;SDS011;10906;45.194;5.684;2022-12-18T18:28:01;14.73;;;9.95;;
21488;SDS011;10906;45.194;5.684;2022-12-18T18:30:46;12.27;;;8.70;;
21488;SDS011;10906;45.194;5.684;2022-12-18T18:33:31;13.90;;;10.23;;
21488;SDS011;10906;45.194;5.684;2022-12-18T18:36:16;13.35;;;8.95;;
21488;SDS011;10906;45.194;5.684;2022-12-18T18:39:00;12.82;;;9.38;;
21488;SDS011;10906;45.194;5.684;2022-12-18T18:41:45;14.85;;;9.00;;
21488;SDS011;10906;45.194;5.684;2022-12-18T18:44:30;13.07;;;8.40;;
21488;SDS011;10906;45.194;5.684;2022-12-18T18:47:14;13.98;;;9.00;;
21488;SDS011;10906;45.194;5.684;2022-12-18T18:49:59;16.95;;;10.65;;
21488;SDS011;10906;45.194;5.684;2022-12-18T18:52:46;17.33;;;10.98;;
21488;SDS011;10906;45.194;5.684;2022-12-18T18:55:31;16.83;;;11.38;;
21488;SDS011;10906;45.194;5.684;2022-12-18T18:58:16;16.55;;;10.75;;
21488;SDS011;10906;45.194;5.684;2022-12-18T19:01:01;18.77;;;12.05;;
21488;SDS011;10906;45.194;5.684;2022-12-18T19:03:48;16.73;;;11.85;;
21488;SDS011;10906;45.194;5.684;2022-12-18T19:06:33;19.13;;;12.82;;
21488;SDS011;10906;45.194;5.684;2022-12-18T19:09:18;16.55;;;11.02;;
21488;SDS011;10906;45.194;5.684;2022-12-18T19:12:02;16.05;;;9.88;;
21488;SDS011;10906;45.194;5.684;2022-12-18T19:15:05;17.30;;;10.98;;
21488;SDS011;10906;45.194;5.684;2022-12-18T19:17:50;15.50;;;11.20;;
21488;SDS011;10906;45.194;5.684;2022-12-18T19:20:35;20.80;;;11.55;;
21488;SDS011;10906;45.194;5.684;2022-12-18T19:23:19;19.58;;;10.63;;
21488;SDS011;10906;45.194;5.684;2022-12-18T19:26:05;16.35;;;11.07;;
21488;SDS011;10906;45.194;5.684;2022-12-18T19:28:50;17.75;;;11.48;;
21488;SDS011;10906;45.194;5.684;2022-12-18T19:31:35;18.52;;;11.65;;
21488;SDS011;10906;45.194;5.684;2022-12-18T19:34:19;16.90;;;10.30;;
21488;SDS011;10906;45.194;5.684;2022-12-18T19:37:04;15.63;;;10.45;;
21488;SDS011;10906;45.194;5.684;2022-12-18T19:39:48;15.90;;;10.57;;
21488;SDS011;10906;45.194;5.684;2022-12-18T19:42:33;13.35;;;9.32;;
21488;SDS011;10906;45.194;5.684;2022-12-18T19:45:17;13.82;;;9.32;;
21488;SDS011;10906;45.194;5.684;2022-12-18T19:48:02;13.88;;;8.60;;
21488;SDS011;10906;45.194;5.684;2022-12-18T19:50:50;15.13;;;8.52;;
21488;SDS011;10906;45.194;5.684;2022-12-18T19:53:34;14.88;;;8.73;;
21488;SDS011;10906;45.194;5.684;2022-12-18T19:56:29;13.63;;;8.10;;
21488;SDS011;10906;45.194;5.684;2022-12-18T20:02:00;21.50;;;13.73;;
21488;SDS011;10906;45.194;5.684;2022-12-18T20:04:44;21.92;;;16.92;;
21488;SDS011;10906;45.194;5.684;2022-12-18T20:07:29;17.75;;;12.60;;
21488;SDS011;10906;45.194;5.684;2022-12-18T20:10:13;18.95;;;12.52;;
21488;SDS011;10906;45.194;5.684;2022-12-18T20:13:00;19.67;;;13.02;;
21488;SDS011;10906;45.194;5.684;2022-12-18T20:15:45;24.80;;;16.73;;
21488;SDS011;10906;45.194;5.684;2022-12-18T20:18:29;23.90;;;16.67;;
21488;SDS011;10906;45.194;5.684;2022-12-18T20:21:14;30.30;;;19.33;;
21488;SDS011;10906;45.194;5.684;2022-12-18T20:23:58;30.13;;;20.05;;
21488;SDS011;10906;45.194;5.684;2022-12-18T20:26:44;30.77;;;20.35;;
21488;SDS011;10906;45.194;5.684;2022-12-18T20:29:34;33.40;;;21.40;;
21488;SDS011;10906;45.194;5.684;2022-12-18T20:32:18;35.65;;;20.20;;
21488;SDS011;10906;45.194;5.684;2022-12-18T20:35:03;34.58;;;22.27;;
21488;SDS011;10906;45.194;5.684;2022-12-18T20:37:48;31.13;;;19.55;;
21488;SDS011;10906;45.194;5.684;2022-12-18T20:40:32;28.55;;;19.50;;
21488;SDS011;10906;45.194;5.684;2022-12-18T20:43:17;83.65;;;45.75;;
21488;SDS011;10906;45.194;5.684;2022-12-18T20:46:02;34.17;;;21.98;;
21488;SDS011;10906;45.194;5.684;2022-12-18T20:48:48;21.08;;;14.55;;
21488;SDS011;10906;45.194;5.684;2022-12-18T20:51:33;30.42;;;19.25;;
21488;SDS011;10906;45.194;5.684;2022-12-18T20:54:25;26.20;;;16.90;;
21488;SDS011;10906;45.194;5.684;2022-12-18T20:57:10;27.00;;;17.63;;
21488;SDS011;10906;45.194;5.684;2022-12-18T20:59:54;30.75;;;19.67;;
21488;SDS011;10906;45.194;5.684;2022-12-18T21:02:39;30.92;;;19.50;;
21488;SDS011;10906;45.194;5.684;2022-12-18T21:05:23;23.98;;;14.52;;
21488;SDS011;10906;45.194;5.684;2022-12-18T21:08:08;32.55;;;18.75;;
21488;SDS011;10906;45.194;5.684;2022-12-18T21:10:53;31.17;;;18.23;;
21488;SDS011;10906;45.194;5.684;2022-12-18T21:13:40;27.33;;;16.55;;
21488;SDS011;10906;45.194;5.684;2022-12-18T21:16:24;27.98;;;15.40;;
21488;SDS011;10906;45.194;5.684;2022-12-18T21:19:09;24.58;;;16.02;;
21488;SDS011;10906;45.194;5.684;2022-12-18T21:21:58;22.73;;;14.13;;
21488;SDS011;10906;45.194;5.684;2022-12-18T21:24:43;21.17;;;13.63;;
21488;SDS011;10906;45.194;5.684;2022-12-18T21:27:27;19.98;;;12.57;;
21488;SDS011;10906;45.194;5.684;2022-12-18T21:30:14;19.40;;;13.38;;
21488;SDS011;10906;45.194;5.684;2022-12-18T21:33:01;20.83;;;13.73;;
21488;SDS011;10906;45.194;5.684;2022-12-18T21:35:48;19.33;;;12.52;;
21488;SDS011;10906;45.194;5.684;2022-12-18T21:38:32;19.50;;;13.02;;
21488;SDS011;10906;45.194;5.684;2022-12-18T21:41:17;22.15;;;12.50;;
21488;SDS011;10906;45.194;5.684;2022-12-18T21:44:21;15.93;;;11.07;;
21488;SDS011;10906;45.194;5.684;2022-12-18T21:47:08;16.45;;;10.80;;
21488;SDS011;10906;45.194;5.684;2022-12-18T21:49:56;15.43;;;10.55;;
21488;SDS011;10906;45.194;5.684;2022-12-18T21:52:40;15.32;;;9.52;;
21488;SDS011;10906;45.194;5.684;2022-12-18T21:55:25;17.70;;;10.60;;
21488;SDS011;10906;45.194;5.684;2022-12-18T21:58:10;16.35;;;10.85;;
21488;SDS011;10906;45.194;5.684;2022-12-18T22:00:57;15.60;;;10.93;;
21488;SDS011;10906;45.194;5.684;2022-12-18T22:03:41;15.88;;;11.45;;
21488;SDS011;10906;45.194;5.684;2022-12-18T22:06:40;17.45;;;11.50;;
21488;SDS011;10906;45.194;5.684;2022-12-18T22:09:28;18.45;;;11.88;;
21488;SDS011;10906;45.194;5.684;2022-12-18T22:12:12;18.38;;;11.98;;
21488;SDS011;10906;45.194;5.684;2022-12-18T22:18:01;20.47;;;13.07;;
21488;SDS011;10906;45.194;5.684;2022-12-18T22:20:48;21.75;;;14.30;;
21488;SDS011;10906;45.194;5.684;2022-12-18T22:23:43;23.00;;;14.50;;
21488;SDS011;10906;45.194;5.684;2022-12-18T22:26:36;21.58;;;15.30;;
21488;SDS011;10906;45.194;5.684;2022-12-18T22:29:22;23.95;;;14.23;;
21488;SDS011;10906;45.194;5.684;2022-12-18T22:32:28;22.20;;;13.88;;
21488;SDS011;10906;45.194;5.684;2022-12-18T22:35:13;21.92;;;13.55;;
21488;SDS011;10906;45.194;5.684;2022-12-18T22:38:02;18.98;;;12.98;;
21488;SDS011;10906;45.194;5.684;2022-12-18T22:40:49;19.42;;;12.45;;
21488;SDS011;10906;45.194;5.684;2022-12-18T22:43:33;16.30;;;9.50;;
21488;SDS011;10906;45.194;5.684;2022-12-18T22:46:17;13.27;;;8.52;;
21488;SDS011;10906;45.194;5.684;2022-12-18T22:49:03;13.07;;;8.75;;
21488;SDS011;10906;45.194;5.684;2022-12-18T22:51:48;12.30;;;8.20;;
21488;SDS011;10906;45.194;5.684;2022-12-18T22:54:34;13.55;;;8.38;;
21488;SDS011;10906;45.194;5.684;2022-12-18T22:57:19;15.38;;;8.77;;
